sensor_id;sensor_type;location;lat;lon;timestamp;temperature;humidity
12847;DHT22;6492;48.128;8.320;2023-01-16T00:00:59;-0.10;48.80
12847;DHT22;6492;48.128;8.320;2023-01-16T00:05:00;-0.10;48.60
12847;DHT22;6492;48.128;8.320;2023-01-16T00:09:04;-0.10;48.40
12847;DHT22;6492;48.128;8.320;2023-01-16T00:13:09;-0.10;48.70
12847;DHT22;6492;48.128;8.320;2023-01-16T00:17:11;0.00;48.10
12847;DHT22;6492;48.128;8.320;2023-01-16T00:21:13;-0.10;48.40
12847;DHT22;6492;48.128;8.320;2023-01-16T00:25:16;0.00;46.30
12847;DHT22;6492;48.128;8.320;2023-01-16T00:29:18;0.00;47.00
12847;DHT22;6492;48.128;8.320;2023-01-16T00:33:20;-0.10;48.50
12847;DHT22;6492;48.128;8.320;2023-01-16T00:37:21;0.00;49.10
12847;DHT22;6492;48.128;8.320;2023-01-16T00:41:25;0.00;47.90
12847;DHT22;6492;48.128;8.320;2023-01-16T00:45:26;0.00;48.20
12847;DHT22;6492;48.128;8.320;2023-01-16T00:49:28;0.00;48.10
12847;DHT22;6492;48.128;8.320;2023-01-16T00:53:30;-0.10;47.80
12847;DHT22;6492;48.128;8.320;2023-01-16T00:57:33;0.00;47.70
12847;DHT22;6492;48.128;8.320;2023-01-16T01:01:35;0.00;47.80
12847;DHT22;6492;48.128;8.320;2023-01-16T01:05:37;-0.10;48.70
12847;DHT22;6492;48.128;8.320;2023-01-16T01:09:39;-0.10;48.90
12847;DHT22;6492;48.128;8.320;2023-01-16T01:13:43;-0.10;48.80
12847;DHT22;6492;48.128;8.320;2023-01-16T01:17:45;-0.10;47.90
12847;DHT22;6492;48.128;8.320;2023-01-16T01:22:05;-0.10;48.10
12847;DHT22;6492;48.128;8.320;2023-01-16T01:26:09;-0.10;47.40
12847;DHT22;6492;48.128;8.320;2023-01-16T01:30:12;-0.10;47.90
12847;DHT22;6492;48.128;8.320;2023-01-16T01:34:14;-0.10;47.60
12847;DHT22;6492;48.128;8.320;2023-01-16T01:38:16;-0.10;48.20
12847;DHT22;6492;48.128;8.320;2023-01-16T01:42:18;-0.20;48.30
12847;DHT22;6492;48.128;8.320;2023-01-16T01:46:41;-0.30;47.70
12847;DHT22;6492;48.128;8.320;2023-01-16T01:50:47;-0.40;48.30
12847;DHT22;6492;48.128;8.320;2023-01-16T01:54:56;-0.50;48.60
12847;DHT22;6492;48.128;8.320;2023-01-16T01:59:04;-0.60;49.20
12847;DHT22;6492;48.128;8.320;2023-01-16T02:03:11;-0.70;50.20
12847;DHT22;6492;48.128;8.320;2023-01-16T02:07:17;-0.70;51.40
12847;DHT22;6492;48.128;8.320;2023-01-16T02:11:23;-0.70;52.70
12847;DHT22;6492;48.128;8.320;2023-01-16T02:15:27;-0.60;52.80
12847;DHT22;6492;48.128;8.320;2023-01-16T02:19:38;-0.50;53.00
12847;DHT22;6492;48.128;8.320;2023-01-16T02:24:17;-0.50;52.70
12847;DHT22;6492;48.128;8.320;2023-01-16T02:28:43;-0.50;52.60
12847;DHT22;6492;48.128;8.320;2023-01-16T02:32:59;-0.50;51.80
12847;DHT22;6492;48.128;8.320;2023-01-16T02:37:09;-0.50;51.80
12847;DHT22;6492;48.128;8.320;2023-01-16T02:41:18;-0.50;51.90
12847;DHT22;6492;48.128;8.320;2023-01-16T02:45:28;-0.50;51.50
12847;DHT22;6492;48.128;8.320;2023-01-16T02:49:38;-0.50;51.20
12847;DHT22;6492;48.128;8.320;2023-01-16T02:53:45;-0.50;50.90
12847;DHT22;6492;48.128;8.320;2023-01-16T02:57:53;-0.50;50.20
12847;DHT22;6492;48.128;8.320;2023-01-16T03:01:57;-0.50;50.00
12847;DHT22;6492;48.128;8.320;2023-01-16T03:06:05;-0.40;50.00
12847;DHT22;6492;48.128;8.320;2023-01-16T03:10:21;-0.40;50.00
12847;DHT22;6492;48.128;8.320;2023-01-16T03:14:35;-0.50;50.70
12847;DHT22;6492;48.128;8.320;2023-01-16T03:18:44;-0.40;49.20
12847;DHT22;6492;48.128;8.320;2023-01-16T03:23:00;-0.40;48.60
12847;DHT22;6492;48.128;8.320;2023-01-16T03:27:09;-0.30;48.30
12847;DHT22;6492;48.128;8.320;2023-01-16T03:31:18;-0.30;47.40
12847;DHT22;6492;48.128;8.320;2023-01-16T03:35:26;-0.30;47.60
12847;DHT22;6492;48.128;8.320;2023-01-16T03:39:44;-0.30;49.10
12847;DHT22;6492;48.128;8.320;2023-01-16T03:43:49;-0.30;49.30
12847;DHT22;6492;48.128;8.320;2023-01-16T03:47:56;-0.40;50.00
12847;DHT22;6492;48.128;8.320;2023-01-16T03:52:02;-0.40;50.60
12847;DHT22;6492;48.128;8.320;2023-01-16T03:56:13;-0.60;51.20
12847;DHT22;6492;48.128;8.320;2023-01-16T04:00:17;-0.60;52.70
12847;DHT22;6492;48.128;8.320;2023-01-16T04:04:23;-0.80;52.70
12847;DHT22;6492;48.128;8.320;2023-01-16T04:08:29;-0.80;53.70
12847;DHT22;6492;48.128;8.320;2023-01-16T04:12:36;-0.90;54.50
12847;DHT22;6492;48.128;8.320;2023-01-16T04:16:39;-1.00;54.30
12847;DHT22;6492;48.128;8.320;2023-01-16T04:20:45;-1.20;53.60
12847;DHT22;6492;48.128;8.320;2023-01-16T04:24:50;-1.40;53.30
12847;DHT22;6492;48.128;8.320;2023-01-16T04:28:54;-1.60;53.30
12847;DHT22;6492;48.128;8.320;2023-01-16T04:32:56;-1.90;53.80
12847;DHT22;6492;48.128;8.320;2023-01-16T04:36:58;-2.10;54.40
12847;DHT22;6492;48.128;8.320;2023-01-16T04:40:59;-2.20;56.30
12847;DHT22;6492;48.128;8.320;2023-01-16T04:45:03;-2.30;57.20
12847;DHT22;6492;48.128;8.320;2023-01-16T04:49:05;-2.50;57.80
12847;DHT22;6492;48.128;8.320;2023-01-16T04:53:07;-2.60;58.70
12847;DHT22;6492;48.128;8.320;2023-01-16T04:57:09;-2.60;60.10
12847;DHT22;6492;48.128;8.320;2023-01-16T05:01:12;-2.70;61.60
12847;DHT22;6492;48.128;8.320;2023-01-16T05:05:14;-2.70;62.50
12847;DHT22;6492;48.128;8.320;2023-01-16T05:09:16;-2.70;63.60
12847;DHT22;6492;48.128;8.320;2023-01-16T05:13:17;-2.60;64.80
12847;DHT22;6492;48.128;8.320;2023-01-16T05:17:20;-2.60;65.60
12847;DHT22;6492;48.128;8.320;2023-01-16T05:21:51;-2.50;66.30
12847;DHT22;6492;48.128;8.320;2023-01-16T05:26:01;-2.50;66.20
12847;DHT22;6492;48.128;8.320;2023-01-16T05:30:03;-2.50;65.80
12847;DHT22;6492;48.128;8.320;2023-01-16T05:34:08;-2.60;65.30
12847;DHT22;6492;48.128;8.320;2023-01-16T05:38:35;-2.70;65.10
12847;DHT22;6492;48.128;8.320;2023-01-16T05:42:37;-2.70;65.50
12847;DHT22;6492;48.128;8.320;2023-01-16T05:46:39;-2.70;65.60
12847;DHT22;6492;48.128;8.320;2023-01-16T05:50:42;-2.80;65.50
12847;DHT22;6492;48.128;8.320;2023-01-16T05:54:45;-2.70;65.90
12847;DHT22;6492;48.128;8.320;2023-01-16T05:58:47;-2.70;66.20
12847;DHT22;6492;48.128;8.320;2023-01-16T06:02:48;-2.70;66.40
12847;DHT22;6492;48.128;8.320;2023-01-16T06:06:52;-2.70;66.50
12847;DHT22;6492;48.128;8.320;2023-01-16T06:10:56;-2.60;66.70
12847;DHT22;6492;48.128;8.320;2023-01-16T06:14:58;-2.60;66.60
12847;DHT22;6492;48.128;8.320;2023-01-16T06:19:00;-2.70;66.20
12847;DHT22;6492;48.128;8.320;2023-01-16T06:23:03;-2.70;66.00
12847;DHT22;6492;48.128;8.320;2023-01-16T06:27:13;-2.80;66.20
12847;DHT22;6492;48.128;8.320;2023-01-16T06:31:15;-2.70;66.80
12847;DHT22;6492;48.128;8.320;2023-01-16T06:35:17;-2.70;66.70
12847;DHT22;6492;48.128;8.320;2023-01-16T06:39:20;-2.80;66.70
12847;DHT22;6492;48.128;8.320;2023-01-16T06:43:23;-2.70;67.10
12847;DHT22;6492;48.128;8.320;2023-01-16T06:47:25;-2.60;67.30
12847;DHT22;6492;48.128;8.320;2023-01-16T06:51:27;-2.50;66.70
12847;DHT22;6492;48.128;8.320;2023-01-16T06:55:30;-2.50;66.10
12847;DHT22;6492;48.128;8.320;2023-01-16T06:59:32;-2.50;65.20
12847;DHT22;6492;48.128;8.320;2023-01-16T07:03:34;-2.40;64.30
12847;DHT22;6492;48.128;8.320;2023-01-16T07:07:37;-2.40;63.20
12847;DHT22;6492;48.128;8.320;2023-01-16T07:11:40;-2.40;62.00
12847;DHT22;6492;48.128;8.320;2023-01-16T07:15:45;-2.30;61.00
12847;DHT22;6492;48.128;8.320;2023-01-16T07:20:07;-2.30;59.90
12847;DHT22;6492;48.128;8.320;2023-01-16T07:24:29;-2.20;58.70
12847;DHT22;6492;48.128;8.320;2023-01-16T07:28:34;-2.20;57.70
12847;DHT22;6492;48.128;8.320;2023-01-16T07:32:36;-2.10;57.40
12847;DHT22;6492;48.128;8.320;2023-01-16T07:36:38;-2.10;56.80
12847;DHT22;6492;48.128;8.320;2023-01-16T07:40:40;-2.10;56.10
12847;DHT22;6492;48.128;8.320;2023-01-16T07:44:43;-2.10;55.60
12847;DHT22;6492;48.128;8.320;2023-01-16T07:48:45;-2.00;54.70
12847;DHT22;6492;48.128;8.320;2023-01-16T07:52:46;-2.00;54.60
12847;DHT22;6492;48.128;8.320;2023-01-16T07:56:48;-1.90;54.70
12847;DHT22;6492;48.128;8.320;2023-01-16T08:00:53;-1.90;54.30
12847;DHT22;6492;48.128;8.320;2023-01-16T08:04:55;-1.80;54.50
12847;DHT22;6492;48.128;8.320;2023-01-16T08:08:57;-1.80;54.80
12847;DHT22;6492;48.128;8.320;2023-01-16T08:12:59;-1.70;54.90
12847;DHT22;6492;48.128;8.320;2023-01-16T08:17:02;-1.60;55.10
12847;DHT22;6492;48.128;8.320;2023-01-16T08:21:04;-1.50;55.00
12847;DHT22;6492;48.128;8.320;2023-01-16T08:25:06;-1.50;54.90
12847;DHT22;6492;48.128;8.320;2023-01-16T08:29:09;-1.50;54.70
12847;DHT22;6492;48.128;8.320;2023-01-16T08:33:12;-1.40;54.30
12847;DHT22;6492;48.128;8.320;2023-01-16T08:37:14;-1.40;52.80
12847;DHT22;6492;48.128;8.320;2023-01-16T08:41:16;-1.30;51.10
12847;DHT22;6492;48.128;8.320;2023-01-16T08:45:36;-1.10;50.10
12847;DHT22;6492;48.128;8.320;2023-01-16T08:49:56;-1.00;48.50
12847;DHT22;6492;48.128;8.320;2023-01-16T08:54:16;-0.80;48.10
12847;DHT22;6492;48.128;8.320;2023-01-16T08:58:17;-0.70;46.90
12847;DHT22;6492;48.128;8.320;2023-01-16T09:02:21;-0.60;45.40
12847;DHT22;6492;48.128;8.320;2023-01-16T09:06:27;-0.50;45.70
12847;DHT22;6492;48.128;8.320;2023-01-16T09:10:28;-0.30;44.70
12847;DHT22;6492;48.128;8.320;2023-01-16T09:14:31;-0.20;43.30
12847;DHT22;6492;48.128;8.320;2023-01-16T09:18:33;-0.10;41.90
12847;DHT22;6492;48.128;8.320;2023-01-16T09:22:36;-0.10;42.20
12847;DHT22;6492;48.128;8.320;2023-01-16T09:26:38;-0.10;40.10
12847;DHT22;6492;48.128;8.320;2023-01-16T09:30:40;0.00;40.40
12847;DHT22;6492;48.128;8.320;2023-01-16T09:34:41;-0.10;40.30
12847;DHT22;6492;48.128;8.320;2023-01-16T09:38:45;-0.10;40.50
12847;DHT22;6492;48.128;8.320;2023-01-16T09:42:53;-0.10;40.80
12847;DHT22;6492;48.128;8.320;2023-01-16T09:47:15;-0.10;41.30
12847;DHT22;6492;48.128;8.320;2023-01-16T09:51:21;-0.10;41.70
12847;DHT22;6492;48.128;8.320;2023-01-16T09:55:29;-0.10;43.00
12847;DHT22;6492;48.128;8.320;2023-01-16T09:59:55;-0.20;43.60
12847;DHT22;6492;48.128;8.320;2023-01-16T10:04:09;-0.10;44.80
12847;DHT22;6492;48.128;8.320;2023-01-16T10:08:16;-0.10;46.30
12847;DHT22;6492;48.128;8.320;2023-01-16T10:12:27;-0.10;48.00
12847;DHT22;6492;48.128;8.320;2023-01-16T10:16:40;-0.10;50.50
12847;DHT22;6492;48.128;8.320;2023-01-16T10:21:11;-0.10;52.20
12847;DHT22;6492;48.128;8.320;2023-01-16T10:25:21;0.00;54.50
12847;DHT22;6492;48.128;8.320;2023-01-16T10:29:30;0.00;55.60
12847;DHT22;6492;48.128;8.320;2023-01-16T10:33:38;0.00;57.30
12847;DHT22;6492;48.128;8.320;2023-01-16T10:37:40;0.00;58.50
12847;DHT22;6492;48.128;8.320;2023-01-16T10:41:46;0.00;59.40
12847;DHT22;6492;48.128;8.320;2023-01-16T10:46:13;0.00;59.60
12847;DHT22;6492;48.128;8.320;2023-01-16T10:50:34;0.00;60.40
12847;DHT22;6492;48.128;8.320;2023-01-16T10:54:37;0.10;60.00
12847;DHT22;6492;48.128;8.320;2023-01-16T10:58:39;0.10;60.00
12847;DHT22;6492;48.128;8.320;2023-01-16T11:02:46;0.10;59.10
12847;DHT22;6492;48.128;8.320;2023-01-16T11:06:48;0.10;59.20
12847;DHT22;6492;48.128;8.320;2023-01-16T11:10:50;0.20;59.90
12847;DHT22;6492;48.128;8.320;2023-01-16T11:14:52;0.20;59.70
12847;DHT22;6492;48.128;8.320;2023-01-16T11:19:18;0.20;60.90
12847;DHT22;6492;48.128;8.320;2023-01-16T11:23:23;0.30;59.80
12847;DHT22;6492;48.128;8.320;2023-01-16T11:27:28;0.40;60.00
12847;DHT22;6492;48.128;8.320;2023-01-16T11:31:30;0.50;60.10
12847;DHT22;6492;48.128;8.320;2023-01-16T11:35:35;0.60;59.30
12847;DHT22;6492;48.128;8.320;2023-01-16T11:39:38;0.60;57.90
12847;DHT22;6492;48.128;8.320;2023-01-16T11:43:40;0.70;56.90
12847;DHT22;6492;48.128;8.320;2023-01-16T11:48:01;0.80;57.20
12847;DHT22;6492;48.128;8.320;2023-01-16T11:52:24;0.90;56.10
12847;DHT22;6492;48.128;8.320;2023-01-16T11:56:49;1.00;53.10
12847;DHT22;6492;48.128;8.320;2023-01-16T12:00:55;1.00;52.40
12847;DHT22;6492;48.128;8.320;2023-01-16T12:05:07;1.10;52.20
12847;DHT22;6492;48.128;8.320;2023-01-16T12:09:53;1.10;50.50
12847;DHT22;6492;48.128;8.320;2023-01-16T12:14:19;1.10;50.90
12847;DHT22;6492;48.128;8.320;2023-01-16T12:18:53;1.10;48.80
12847;DHT22;6492;48.128;8.320;2023-01-16T12:28:09;1.10;48.20
12847;DHT22;6492;48.128;8.320;2023-01-16T12:32:28;1.20;48.50
12847;DHT22;6492;48.128;8.320;2023-01-16T12:36:49;1.30;46.90
12847;DHT22;6492;48.128;8.320;2023-01-16T12:41:15;1.30;43.70
12847;DHT22;6492;48.128;8.320;2023-01-16T12:45:45;1.30;41.80
12847;DHT22;6492;48.128;8.320;2023-01-16T12:49:57;1.50;42.70
12847;DHT22;6492;48.128;8.320;2023-01-16T12:54:19;1.50;41.10
12847;DHT22;6492;48.128;8.320;2023-01-16T12:58:25;1.50;42.40
12847;DHT22;6492;48.128;8.320;2023-01-16T13:02:34;1.50;42.60
12847;DHT22;6492;48.128;8.320;2023-01-16T13:06:47;1.30;43.30
12847;DHT22;6492;48.128;8.320;2023-01-16T13:10:52;1.00;45.30
12847;DHT22;6492;48.128;8.320;2023-01-16T13:15:32;0.90;47.70
12847;DHT22;6492;48.128;8.320;2023-01-16T13:19:40;0.80;49.50
12847;DHT22;6492;48.128;8.320;2023-01-16T13:23:47;0.70;51.30
12847;DHT22;6492;48.128;8.320;2023-01-16T13:27:54;0.60;54.20
12847;DHT22;6492;48.128;8.320;2023-01-16T13:31:59;0.50;56.50
12847;DHT22;6492;48.128;8.320;2023-01-16T13:36:16;0.40;58.70
12847;DHT22;6492;48.128;8.320;2023-01-16T13:40:37;0.30;60.50
12847;DHT22;6492;48.128;8.320;2023-01-16T13:44:46;0.40;63.90
12847;DHT22;6492;48.128;8.320;2023-01-16T13:49:14;0.60;65.30
12847;DHT22;6492;48.128;8.320;2023-01-16T13:53:21;0.70;63.60
12847;DHT22;6492;48.128;8.320;2023-01-16T13:57:25;0.70;62.20
12847;DHT22;6492;48.128;8.320;2023-01-16T14:01:34;0.70;60.60
12847;DHT22;6492;48.128;8.320;2023-01-16T14:05:48;0.80;59.80
12847;DHT22;6492;48.128;8.320;2023-01-16T14:10:21;0.90;58.70
12847;DHT22;6492;48.128;8.320;2023-01-16T14:14:34;0.80;53.10
12847;DHT22;6492;48.128;8.320;2023-01-16T14:19:22;0.90;51.80
12847;DHT22;6492;48.128;8.320;2023-01-16T14:23:25;0.80;48.50
12847;DHT22;6492;48.128;8.320;2023-01-16T14:27:59;0.80;46.80
12847;DHT22;6492;48.128;8.320;2023-01-16T14:32:03;0.70;46.20
12847;DHT22;6492;48.128;8.320;2023-01-16T14:36:13;0.70;45.80
12847;DHT22;6492;48.128;8.320;2023-01-16T14:40:20;0.70;45.70
12847;DHT22;6492;48.128;8.320;2023-01-16T14:44:23;0.80;46.10
12847;DHT22;6492;48.128;8.320;2023-01-16T14:48:46;0.80;46.40
12847;DHT22;6492;48.128;8.320;2023-01-16T14:53:20;0.80;48.30
12847;DHT22;6492;48.128;8.320;2023-01-16T14:57:41;0.60;51.50
12847;DHT22;6492;48.128;8.320;2023-01-16T15:01:47;0.50;54.60
12847;DHT22;6492;48.128;8.320;2023-01-16T15:06:09;0.50;56.30
12847;DHT22;6492;48.128;8.320;2023-01-16T15:10:15;0.40;58.80
12847;DHT22;6492;48.128;8.320;2023-01-16T15:14:20;0.40;61.50
12847;DHT22;6492;48.128;8.320;2023-01-16T15:18:43;0.30;64.10
12847;DHT22;6492;48.128;8.320;2023-01-16T15:23:05;0.30;63.70
12847;DHT22;6492;48.128;8.320;2023-01-16T15:27:13;0.30;62.10
12847;DHT22;6492;48.128;8.320;2023-01-16T15:31:19;0.30;60.00
12847;DHT22;6492;48.128;8.320;2023-01-16T15:35:23;0.30;56.80
12847;DHT22;6492;48.128;8.320;2023-01-16T15:39:40;0.30;57.00
12847;DHT22;6492;48.128;8.320;2023-01-16T15:43:51;0.30;58.70
12847;DHT22;6492;48.128;8.320;2023-01-16T15:48:28;0.30;59.60
12847;DHT22;6492;48.128;8.320;2023-01-16T15:52:37;0.30;59.40
12847;DHT22;6492;48.128;8.320;2023-01-16T15:56:47;0.30;60.00
12847;DHT22;6492;48.128;8.320;2023-01-16T16:00:54;0.20;61.20
12847;DHT22;6492;48.128;8.320;2023-01-16T16:04:59;0.20;62.00
12847;DHT22;6492;48.128;8.320;2023-01-16T16:09:03;0.20;58.40
12847;DHT22;6492;48.128;8.320;2023-01-16T16:13:05;0.20;58.90
12847;DHT22;6492;48.128;8.320;2023-01-16T16:17:20;0.20;56.10
12847;DHT22;6492;48.128;8.320;2023-01-16T16:21:43;0.30;57.70
12847;DHT22;6492;48.128;8.320;2023-01-16T16:26:12;0.20;61.50
12847;DHT22;6492;48.128;8.320;2023-01-16T16:30:21;0.00;62.90
12847;DHT22;6492;48.128;8.320;2023-01-16T16:34:23;0.00;62.90
12847;DHT22;6492;48.128;8.320;2023-01-16T16:38:58;0.00;64.10
12847;DHT22;6492;48.128;8.320;2023-01-16T16:43:01;-0.10;63.80
12847;DHT22;6492;48.128;8.320;2023-01-16T16:47:09;-0.10;63.30
12847;DHT22;6492;48.128;8.320;2023-01-16T16:51:21;-0.20;62.90
12847;DHT22;6492;48.128;8.320;2023-01-16T16:55:34;-0.20;64.30
12847;DHT22;6492;48.128;8.320;2023-01-16T16:59:38;-0.30;65.80
12847;DHT22;6492;48.128;8.320;2023-01-16T17:03:45;-0.30;67.70
12847;DHT22;6492;48.128;8.320;2023-01-16T17:08:13;-0.40;66.00
12847;DHT22;6492;48.128;8.320;2023-01-16T17:12:28;-0.40;64.40
12847;DHT22;6492;48.128;8.320;2023-01-16T17:16:31;-0.30;62.80
12847;DHT22;6492;48.128;8.320;2023-01-16T17:20:34;-0.30;61.90
12847;DHT22;6492;48.128;8.320;2023-01-16T17:24:36;-0.30;60.10
12847;DHT22;6492;48.128;8.320;2023-01-16T17:28:38;-0.30;59.90
12847;DHT22;6492;48.128;8.320;2023-01-16T17:32:44;-0.40;60.70
12847;DHT22;6492;48.128;8.320;2023-01-16T17:37:11;-0.30;62.00
12847;DHT22;6492;48.128;8.320;2023-01-16T17:41:16;-0.50;63.30
12847;DHT22;6492;48.128;8.320;2023-01-16T17:45:28;-0.50;60.60
12847;DHT22;6492;48.128;8.320;2023-01-16T17:49:49;-0.50;58.30
12847;DHT22;6492;48.128;8.320;2023-01-16T17:54:08;-0.40;56.40
12847;DHT22;6492;48.128;8.320;2023-01-16T17:58:31;-0.30;54.90
12847;DHT22;6492;48.128;8.320;2023-01-16T18:02:45;-0.30;54.90
12847;DHT22;6492;48.128;8.320;2023-01-16T18:07:24;-0.20;54.30
12847;DHT22;6492;48.128;8.320;2023-01-16T18:11:25;-0.20;56.20
12847;DHT22;6492;48.128;8.320;2023-01-16T18:16:03;-0.30;57.30
12847;DHT22;6492;48.128;8.320;2023-01-16T18:20:38;-0.30;56.10
12847;DHT22;6492;48.128;8.320;2023-01-16T18:25:06;-0.30;54.70
12847;DHT22;6492;48.128;8.320;2023-01-16T18:29:27;-0.30;54.10
12847;DHT22;6492;48.128;8.320;2023-01-16T18:33:57;-0.30;54.10
12847;DHT22;6492;48.128;8.320;2023-01-16T18:38:03;-0.30;54.20
12847;DHT22;6492;48.128;8.320;2023-01-16T18:42:24;-0.40;53.00
12847;DHT22;6492;48.128;8.320;2023-01-16T18:46:43;-0.40;54.90
12847;DHT22;6492;48.128;8.320;2023-01-16T18:51:04;-0.40;54.20
12847;DHT22;6492;48.128;8.320;2023-01-16T18:55:51;-0.40;50.90
12847;DHT22;6492;48.128;8.320;2023-01-16T19:00:28;-0.40;47.50
12847;DHT22;6492;48.128;8.320;2023-01-16T19:04:57;-0.40;43.90
12847;DHT22;6492;48.128;8.320;2023-01-16T19:08:59;-0.30;43.00
12847;DHT22;6492;48.128;8.320;2023-01-16T19:13:05;-0.40;42.60
12847;DHT22;6492;48.128;8.320;2023-01-16T19:17:09;-0.40;44.30
12847;DHT22;6492;48.128;8.320;2023-01-16T19:21:11;-0.40;44.00
12847;DHT22;6492;48.128;8.320;2023-01-16T19:25:13;-0.40;44.20
12847;DHT22;6492;48.128;8.320;2023-01-16T19:29:16;-0.50;44.50
12847;DHT22;6492;48.128;8.320;2023-01-16T19:33:19;-0.50;43.90
12847;DHT22;6492;48.128;8.320;2023-01-16T19:37:21;-0.50;44.20
12847;DHT22;6492;48.128;8.320;2023-01-16T19:41:23;-0.60;44.60
12847;DHT22;6492;48.128;8.320;2023-01-16T19:45:43;-0.70;44.50
12847;DHT22;6492;48.128;8.320;2023-01-16T19:50:04;-0.70;43.70
12847;DHT22;6492;48.128;8.320;2023-01-16T19:54:06;-0.70;42.00
12847;DHT22;6492;48.128;8.320;2023-01-16T19:58:08;-0.80;43.70
12847;DHT22;6492;48.128;8.320;2023-01-16T20:02:12;-0.80;44.20
12847;DHT22;6492;48.128;8.320;2023-01-16T20:06:16;-0.90;44.60
12847;DHT22;6492;48.128;8.320;2023-01-16T20:10:18;-0.90;45.20
12847;DHT22;6492;48.128;8.320;2023-01-16T20:14:20;-0.90;43.60
12847;DHT22;6492;48.128;8.320;2023-01-16T20:18:23;-0.80;43.80
12847;DHT22;6492;48.128;8.320;2023-01-16T20:22:27;-0.80;44.80
12847;DHT22;6492;48.128;8.320;2023-01-16T20:26:29;-0.80;45.50
12847;DHT22;6492;48.128;8.320;2023-01-16T20:30:31;-0.80;45.60
12847;DHT22;6492;48.128;8.320;2023-01-16T20:34:48;-0.70;45.30
12847;DHT22;6492;48.128;8.320;2023-01-16T20:38:52;-0.70;44.70
12847;DHT22;6492;48.128;8.320;2023-01-16T20:42:53;-0.70;45.30
12847;DHT22;6492;48.128;8.320;2023-01-16T20:47:15;-0.80;44.20
12847;DHT22;6492;48.128;8.320;2023-01-16T20:51:17;-0.90;45.70
12847;DHT22;6492;48.128;8.320;2023-01-16T20:55:20;-0.90;46.20
12847;DHT22;6492;48.128;8.320;2023-01-16T20:59:50;-0.90;46.80
12847;DHT22;6492;48.128;8.320;2023-01-16T21:04:04;-0.90;46.10
12847;DHT22;6492;48.128;8.320;2023-01-16T21:08:06;-1.00;46.20
12847;DHT22;6492;48.128;8.320;2023-01-16T21:12:09;-1.10;46.00
12847;DHT22;6492;48.128;8.320;2023-01-16T21:16:28;-1.20;45.90
12847;DHT22;6492;48.128;8.320;2023-01-16T21:20:47;-1.20;46.20
12847;DHT22;6492;48.128;8.320;2023-01-16T21:25:10;-1.20;46.00
12847;DHT22;6492;48.128;8.320;2023-01-16T21:29:13;-1.20;46.00
12847;DHT22;6492;48.128;8.320;2023-01-16T21:33:45;-1.10;46.30
12847;DHT22;6492;48.128;8.320;2023-01-16T21:37:50;-1.00;44.90
12847;DHT22;6492;48.128;8.320;2023-01-16T21:41:53;-1.00;45.30
12847;DHT22;6492;48.128;8.320;2023-01-16T21:46:22;-1.10;45.90
12847;DHT22;6492;48.128;8.320;2023-01-16T21:50:31;-1.00;44.60
12847;DHT22;6492;48.128;8.320;2023-01-16T21:54:38;-1.00;45.30
12847;DHT22;6492;48.128;8.320;2023-01-16T21:58:39;-1.10;45.80
12847;DHT22;6492;48.128;8.320;2023-01-16T22:02:56;-1.10;45.10
12847;DHT22;6492;48.128;8.320;2023-01-16T22:06:57;-1.20;44.00
12847;DHT22;6492;48.128;8.320;2023-01-16T22:11:05;-1.20;44.20
12847;DHT22;6492;48.128;8.320;2023-01-16T22:15:24;-1.30;44.60
12847;DHT22;6492;48.128;8.320;2023-01-16T22:19:45;-1.30;46.20
12847;DHT22;6492;48.128;8.320;2023-01-16T22:23:55;-1.20;46.10
12847;DHT22;6492;48.128;8.320;2023-01-16T22:28:07;-1.20;46.70
12847;DHT22;6492;48.128;8.320;2023-01-16T22:32:10;-1.10;45.80
12847;DHT22;6492;48.128;8.320;2023-01-16T22:36:13;-1.10;45.10
12847;DHT22;6492;48.128;8.320;2023-01-16T22:40:15;-1.10;45.50
12847;DHT22;6492;48.128;8.320;2023-01-16T22:44:27;-1.10;46.00
12847;DHT22;6492;48.128;8.320;2023-01-16T22:48:46;-1.10;46.30
12847;DHT22;6492;48.128;8.320;2023-01-16T22:52:50;-1.10;46.80
12847;DHT22;6492;48.128;8.320;2023-01-16T22:56:51;-1.10;47.60
12847;DHT22;6492;48.128;8.320;2023-01-16T23:00:53;-1.20;47.50
12847;DHT22;6492;48.128;8.320;2023-01-16T23:04:57;-1.20;46.00
12847;DHT22;6492;48.128;8.320;2023-01-16T23:09:02;-1.30;46.80
12847;DHT22;6492;48.128;8.320;2023-01-16T23:13:04;-1.20;46.00
12847;DHT22;6492;48.128;8.320;2023-01-16T23:17:05;-1.20;46.00
12847;DHT22;6492;48.128;8.320;2023-01-16T23:21:07;-1.20;47.50
12847;DHT22;6492;48.128;8.320;2023-01-16T23:25:10;-1.30;52.70
12847;DHT22;6492;48.128;8.320;2023-01-16T23:29:13;-1.30;55.30
12847;DHT22;6492;48.128;8.320;2023-01-16T23:33:15;-1.30;55.80
12847;DHT22;6492;48.128;8.320;2023-01-16T23:37:17;-1.30;56.60
12847;DHT22;6492;48.128;8.320;2023-01-16T23:41:21;-1.30;58.60
12847;DHT22;6492;48.128;8.320;2023-01-16T23:45:44;-1.30;60.60
12847;DHT22;6492;48.128;8.320;2023-01-16T23:49:47;-1.40;62.30
12847;DHT22;6492;48.128;8.320;2023-01-16T23:53:50;-1.40;62.70
12847;DHT22;6492;48.128;8.320;2023-01-16T23:57:54;-1.50;63.60
